Time;durP1;ratioP1;P1;durP2;ratioP2;P2;SDS_P1;SDS_P2;PMS_P1;PMS_P2;Temp;Humidity;BMP_temperature;BMP_pressure;BME280_temperature;BME280_humidity;BME280_pressure;Samples;Min_cycle;Max_cycle;Signal;HPM_P1;HPM_P2
2022/07/14 00:01:41;;;;;;;;;;;;;;;;;;5039763;28;19913;-24
2022/07/14 00:04:09;;;;;;;;;;;;;;;;;;5040395;28;20008;-24
2022/07/14 00:06:36;;;;;;;;;;;;;;;;;;5022300;28;19948;-23
2022/07/14 00:09:03;;;;;;;;;;;;;;;;;;5039789;28;19956;-23
2022/07/14 00:11:29;;;;;;;;;;;;;;;;;;5022332;28;19909;-24
2022/07/14 00:13:58;;;;;;;;;;;;;;;;;;5039608;28;19913;-23
2022/07/14 00:16:25;;;;;;;;;;;;;;;;;;5039823;28;19921;-24
2022/07/14 00:18:51;;;;;;;;;;;;;;;;;;5039577;28;19917;-24
2022/07/14 00:21:19;;;;;;;;;;;;;;;;;;5039954;28;19913;-24
2022/07/14 00:23:45;;;;;;;;;;;;;;;;;;5039488;28;19917;-24
2022/07/14 00:26:12;;;;;;;;;;;;;;;;;;5021924;28;19909;-24
2022/07/14 00:28:39;;;;;;;;;;;;;;;;;;5039429;28;20370;-24
2022/07/14 00:31:05;;;;;;;;;;;;;;;;;;5039552;28;19909;-24
2022/07/14 00:33:32;;;;;;;;;;;;;;;;;;5021778;28;20284;-24
2022/07/14 00:35:59;;;;;;;;;;;;;;;;;;5039014;28;19914;-23
2022/07/14 00:38:26;;;;;;;;;;;;;;;;;;5038957;28;19924;-24
2022/07/14 00:40:53;;;;;;;;;;;;;;;;;;5022558;28;19959;-24
2022/07/14 00:43:20;;;;;;;;;;;;;;;;;;5039104;28;19917;-24
2022/07/14 00:45:46;;;;;;;;;;;;;;;;;;5039545;28;19921;-24
2022/07/14 00:48:13;;;;;;;;;;;;;;;;;;5018652;28;19925;-25
2022/07/14 00:50:44;;;;;;;;;;;;;;;;;;5019536;28;19910;-24
2022/07/14 00:53:11;;;;;;;;;;;;;;;;;;5019268;28;20256;-24
2022/07/14 00:55:38;;;;;;;;;;;;;;;;;;5019457;28;19925;-24
2022/07/14 00:58:05;;;;;;;;;;;;;;;;;;5019286;28;20252;-23
2022/07/14 01:00:32;;;;;;;;;;;;;;;;;;5018930;28;20307;-24
2022/07/14 01:02:59;;;;;;;;;;;;;;;;;;5019963;28;19913;-24
2022/07/14 01:05:26;;;;;;;;;;;;;;;;;;5019414;28;20000;-24
2022/07/14 01:07:54;;;;;;;;;;;;;;;;;;5017751;28;19968;-24
2022/07/14 01:10:20;;;;;;;;;;;;;;;;;;5019238;28;20001;-24
2022/07/14 01:12:48;;;;;;;;;;;;;;;;;;5019036;28;19913;-24
2022/07/14 01:15:15;;;;;;;;;;;;;;;;;;5017988;28;19913;-24
2022/07/14 01:17:42;;;;;;;;;;;;;;;;;;5017662;28;20003;-23
2022/07/14 01:20:09;;;;;;;;;;;;;;;;;;5018733;28;19910;-23
2022/07/14 01:22:36;;;;;;;;;;;;;;;;;;5019011;28;19917;-24
2022/07/14 01:25:06;;;;;;;;;;;;;;;;;;5017736;28;19913;-23
2022/07/14 01:27:34;;;;;;;;;;;;;;;;;;5017619;28;19924;-23
2022/07/14 01:30:02;;;;;;;;;;;;;;;;;;5018977;28;19909;-23
2022/07/14 01:32:28;;;;;;;;;;;;;;;;;;5019027;28;20301;-23
2022/07/14 01:34:55;;;;;;;;;;;;;;;;;;5018576;28;19916;-24
2022/07/14 01:37:23;;;;;;;;;;;;;;;;;;5017530;28;19924;-23
2022/07/14 01:39:49;;;;;;;;;;;;;;;;;;5017388;28;19914;-24
2022/07/14 01:42:16;;;;;;;;;;;;;;;;;;5017920;28;19910;-24
2022/07/14 01:44:44;;;;;;;;;;;;;;;;;;5018278;28;19917;-24
2022/07/14 01:47:10;;;;;;;;;;;;;;;;;;5018285;28;19914;-24
2022/07/14 01:49:37;;;;;;;;;;;;;;;;;;5037157;28;20244;-24
2022/07/14 01:52:07;;;;;;;;;;;;;;;;;;5020552;28;19924;-23
2022/07/14 01:54:34;;;;;;;;;;;;;;;;;;5038180;28;20370;-24
2022/07/14 01:57:01;;;;;;;;;;;;;;;;;;5038034;28;19916;-24
2022/07/14 01:59:28;;;;;;;;;;;;;;;;;;5037578;28;20007;-24
2022/07/14 02:01:54;;;;;;;;;;;;;;;;;;5020445;28;19948;-24
2022/07/14 02:04:20;;;;;;;;;;;;;;;;;;5038152;28;19917;-24
2022/07/14 02:06:48;;;;;;;;;;;;;;;;;;5037561;28;20276;-24
2022/07/14 02:09:14;;;;;;;;;;;;;;;;;;5037818;28;20011;-24
2022/07/14 02:14:26;;;;;;;;;;;;;;;;;;5037444;28;19939;-24
2022/07/14 02:16:54;;;;;;;;;;;;;;;;;;5037675;28;19909;-23
2022/07/14 02:19:21;;;;;;;;;;;;;;;;;;5037803;28;20209;-24
2022/07/14 02:21:47;;;;;;;;;;;;;;;;;;5037362;28;19909;-23
2022/07/14 02:24:14;;;;;;;;;;;;;;;;;;5037432;28;19925;-24
2022/07/14 02:26:42;;;;;;;;;;;;;;;;;;5037430;28;19948;-24
2022/07/14 02:29:09;;;;;;;;;;;;;;;;;;5019723;28;19913;-24
2022/07/14 02:31:36;;;;;;;;;;;;;;;;;;5037372;28;19979;-24
2022/07/14 02:34:03;;;;;;;;;;;;;;;;;;5037191;28;20000;-24
2022/07/14 02:36:30;;;;;;;;;;;;;;;;;;5019914;28;20363;-24
2022/07/14 02:38:57;;;;;;;;;;;;;;;;;;5037400;28;19924;-23
2022/07/14 02:41:24;;;;;;;;;;;;;;;;;;5019349;28;19945;-24
2022/07/14 02:43:51;;;;;;;;;;;;;;;;;;5037043;28;20085;-24
2022/07/14 02:46:18;;;;;;;;;;;;;;;;;;5037538;28;19924;-24
2022/07/14 02:48:45;;;;;;;;;;;;;;;;;;5016277;28;19922;-24
2022/07/14 02:51:12;;;;;;;;;;;;;;;;;;5017986;28;19984;-24
2022/07/14 02:53:38;;;;;;;;;;;;;;;;;;5017339;28;20016;-24
2022/07/14 02:56:05;;;;;;;;;;;;;;;;;;5016588;28;19910;-23
2022/07/14 02:58:33;;;;;;;;;;;;;;;;;;5017351;28;20012;-24
2022/07/14 03:00:59;;;;;;;;;;;;;;;;;;5015976;28;19913;-24
2022/07/14 03:03:27;;;;;;;;;;;;;;;;;;5015690;28;19979;-24
2022/07/14 03:05:53;;;;;;;;;;;;;;;;;;5016116;28;19952;-23
2022/07/14 03:08:21;;;;;;;;;;;;;;;;;;5016819;28;19910;-24
2022/07/14 03:10:49;;;;;;;;;;;;;;;;;;5016184;28;19914;-23
2022/07/14 03:13:16;;;;;;;;;;;;;;;;;;5017372;28;19972;-23
2022/07/14 03:15:43;;;;;;;;;;;;;;;;;;5017519;28;20230;-24
2022/07/14 03:18:10;;;;;;;;;;;;;;;;;;5017547;28;19924;-23
2022/07/14 03:20:37;;;;;;;;;;;;;;;;;;5017099;28;19909;-24
2022/07/14 03:23:04;;;;;;;;;;;;;;;;;;5017839;28;19983;-23
2022/07/14 03:25:31;;;;;;;;;;;;;;;;;;5016870;28;19914;-24
2022/07/14 03:28:01;;;;;;;;;;;;;;;;;;5017738;28;19918;-24
2022/07/14 03:30:30;;;;;;;;;;;;;;;;;;5017857;28;20257;-24
2022/07/14 03:32:57;;;;;;;;;;;;;;;;;;5017364;28;19944;-24
2022/07/14 03:35:31;;;;;;;;;;;;;;;;;;5017053;28;19920;-24
2022/07/14 03:37:58;;;;;;;;;;;;;;;;;;5016360;28;19918;-24
2022/07/14 03:40:25;;;;;;;;;;;;;;;;;;5016984;28;19913;-24
2022/07/14 03:42:52;;;;;;;;;;;;;;;;;;5017179;28;19913;-24
2022/07/14 03:45:19;;;;;;;;;;;;;;;;;;5016751;28;20247;-23
2022/07/14 03:47:46;;;;;;;;;;;;;;;;;;5019568;28;19924;-24
2022/07/14 03:50:13;;;;;;;;;;;;;;;;;;5037230;28;19917;-25
2022/07/14 03:52:41;;;;;;;;;;;;;;;;;;5018541;28;19924;-23
2022/07/14 03:55:10;;;;;;;;;;;;;;;;;;5036253;28;19919;-24
2022/07/14 03:57:37;;;;;;;;;;;;;;;;;;5036008;28;19913;-23
2022/07/14 04:00:05;;;;;;;;;;;;;;;;;;5036355;28;20263;-24
2022/07/14 04:02:31;;;;;;;;;;;;;;;;;;5466799;22;19952;-19
2022/07/14 04:04:58;;;;;;;;;;;;;;;;;;5016327;28;20297;-19
2022/07/14 04:07:26;;;;;;;;;;;;;;;;;;4999232;28;20419;-19
2022/07/14 04:09:54;;;;;;;;;;;;;;;;;;5017327;28;19917;-19
2022/07/14 04:12:21;;;;;;;;;;;;;;;;;;5019875;28;19933;-19
2022/07/14 04:14:48;;;;;;;;;;;;;;;;;;5002896;28;19913;-19
2022/07/14 04:17:15;;;;;;;;;;;;;;;;;;5019585;28;19910;-20
2022/07/14 04:19:42;;;;;;;;;;;;;;;;;;5019644;28;19914;-20
2022/07/14 04:22:08;;;;;;;;;;;;;;;;;;5001968;28;19914;-19
2022/07/14 04:24:37;;;;;;;;;;;;;;;;;;5019900;28;19928;-19
2022/07/14 04:27:04;;;;;;;;;;;;;;;;;;5002560;28;19921;-19
2022/07/14 04:29:32;;;;;;;;;;;;;;;;;;5020124;28;19913;-19
2022/07/14 04:31:59;;;;;;;;;;;;;;;;;;5001972;28;20344;-19
2022/07/14 04:34:25;;;;;;;;;;;;;;;;;;5019723;28;19914;-19
2022/07/14 04:36:52;;;;;;;;;;;;;;;;;;5001998;28;19910;-19
2022/07/14 04:39:20;;;;;;;;;;;;;;;;;;5019945;28;20009;-19
2022/07/14 04:41:52;;;;;;;;;;;;;;;;;;5019820;28;19944;-20
2022/07/14 04:44:19;;;;;;;;;;;;;;;;;;5019420;28;19917;-19
2022/07/14 04:46:48;;;;;;;;;;;;;;;;;;5019063;28;19960;-19
2022/07/14 04:52:03;;;;;;;;;;;;;;;;;;5020349;28;20418;-20
2022/07/14 04:54:31;;;;;;;;;;;;;;;;;;5018979;28;19909;-19
2022/07/14 04:56:57;;;;;;;;;;;;;;;;;;5001965;28;19913;-19
2022/07/14 04:59:25;;;;;;;;;;;;;;;;;;5002110;28;19921;-20
2022/07/14 05:01:52;;;;;;;;;;;;;;;;;;5001844;28;19956;-19
2022/07/14 05:04:20;;;;;;;;;;;;;;;;;;5001638;28;19991;-19
2022/07/14 05:06:49;;;;;;;;;;;;;;;;;;5019064;28;19913;-21
2022/07/14 05:09:18;;;;;;;;;;;;;;;;;;5019680;28;19992;-19
2022/07/14 05:20:13;;;;;;;;;;;;;;;;;;5024346;28;19923;-20
2022/07/14 05:22:44;;;;;;;;;;;;;;;;;;5023684;28;19913;-19
2022/07/14 05:25:17;;;;;;;;;;;;;;;;;;5021242;28;19917;-21
2022/07/14 05:27:46;;;;;;;;;;;;;;;;;;5002887;28;19914;-21
2022/07/14 05:30:16;;;;;;;;;;;;;;;;;;5018225;28;19987;-20
2022/07/14 05:32:44;;;;;;;;;;;;;;;;;;5018749;28;19928;-20
2022/07/14 05:35:10;;;;;;;;;;;;;;;;;;5018224;28;19914;-19
2022/07/14 05:37:42;;;;;;;;;;;;;;;;;;5019284;28;20336;-20
2022/07/14 05:40:10;;;;;;;;;;;;;;;;;;5002028;28;19917;-20
2022/07/14 05:42:43;;;;;;;;;;;;;;;;;;5018720;28;20093;-20
2022/07/14 05:45:10;;;;;;;;;;;;;;;;;;5001073;28;20001;-21
2022/07/14 05:47:38;;;;;;;;;;;;;;;;;;5000696;28;19925;-20
2022/07/14 05:50:11;;;;;;;;;;;;;;;;;;5018376;28;19973;-21
2022/07/14 05:52:38;;;;;;;;;;;;;;;;;;5000371;28;19914;-20
2022/07/14 05:55:05;;;;;;;;;;;;;;;;;;5020316;28;19909;-21
2022/07/14 05:57:35;;;;;;;;;;;;;;;;;;5019423;28;19909;-20
2022/07/14 06:00:05;;;;;;;;;;;;;;;;;;5019324;28;19913;-19
2022/07/14 06:02:34;;;;;;;;;;;;;;;;;;5017740;28;20074;-20
2022/07/14 06:05:02;;;;;;;;;;;;;;;;;;5017469;28;19984;-23
2022/07/14 06:07:31;;;;;;;;;;;;;;;;;;5018473;28;19933;-20
2022/07/14 06:09:59;;;;;;;;;;;;;;;;;;5002417;28;19968;-20
2022/07/14 06:12:34;;;;;;;;;;;;;;;;;;5001299;28;19913;-21
2022/07/14 06:15:01;;;;;;;;;;;;;;;;;;5001056;28;19940;-21
2022/07/14 06:17:32;;;;;;;;;;;;;;;;;;5019002;28;19967;-19
2022/07/14 06:22:54;;;;;;;;;;;;;;;;;;5020001;28;19968;-20
2022/07/14 06:25:22;;;;;;;;;;;;;;;;;;5018907;28;19917;-20
2022/07/14 06:27:52;;;;;;;;;;;;;;;;;;5018648;28;19913;-20
2022/07/14 06:30:29;;;;;;;;;;;;;;;;;;5018053;28;19921;-20
2022/07/14 06:32:58;;;;;;;;;;;;;;;;;;5017843;28;19913;-20
2022/07/14 06:35:31;;;;;;;;;;;;;;;;;;5019459;28;19909;-19
2022/07/14 06:38:06;;;;;;;;;;;;;;;;;;5019242;28;19925;-19
2022/07/14 06:40:44;;;;;;;;;;;;;;;;;;5002267;28;20241;-20
2022/07/14 06:43:15;;;;;;;;;;;;;;;;;;5018250;28;19913;-21
2022/07/14 06:45:55;;;;;;;;;;;;;;;;;;5001126;28;19909;-20
2022/07/14 06:48:25;;;;;;;;;;;;;;;;;;5001209;28;20338;-20
2022/07/14 06:50:53;;;;;;;;;;;;;;;;;;5018379;28;20004;-18
2022/07/14 06:53:24;;;;;;;;;;;;;;;;;;5000485;28;20284;-20
2022/07/14 06:55:56;;;;;;;;;;;;;;;;;;5000126;28;19913;-19
2022/07/14 06:58:26;;;;;;;;;;;;;;;;;;5017476;28;19957;-19
2022/07/14 07:00:55;;;;;;;;;;;;;;;;;;5018455;28;19914;-21
2022/07/14 07:03:23;;;;;;;;;;;;;;;;;;5017394;28;19932;-21
2022/07/14 07:08:39;;;;;;;;;;;;;;;;;;5018184;28;19920;-20
2022/07/14 07:14:01;;;;;;;;;;;;;;;;;;5019784;28;19967;-21
2022/07/14 07:16:31;;;;;;;;;;;;;;;;;;5017700;28;19924;-21
2022/07/14 07:19:02;;;;;;;;;;;;;;;;;;5017290;28;19920;-21
2022/07/14 07:21:31;;;;;;;;;;;;;;;;;;5017736;28;19943;-21
2022/07/14 07:24:06;;;;;;;;;;;;;;;;;;5017500;28;19948;-21
2022/07/14 07:26:36;;;;;;;;;;;;;;;;;;5018574;28;20461;-21
2022/07/14 07:29:07;;;;;;;;;;;;;;;;;;5017695;28;19979;-21
2022/07/14 07:34:30;;;;;;;;;;;;;;;;;;5018254;28;19936;-22
2022/07/14 07:37:10;;;;;;;;;;;;;;;;;;5018795;28;19999;-21
2022/07/14 07:39:38;;;;;;;;;;;;;;;;;;5018634;28;19918;-21
2022/07/14 07:42:05;;;;;;;;;;;;;;;;;;5018200;28;19941;-21
2022/07/14 07:44:33;;;;;;;;;;;;;;;;;;5021270;28;19952;-21
2022/07/14 07:47:02;;;;;;;;;;;;;;;;;;5004657;28;20323;-21
2022/07/14 07:49:43;;;;;;;;;;;;;;;;;;5004203;28;19913;-21
2022/07/14 07:52:11;;;;;;;;;;;;;;;;;;5021086;28;19956;-21
2022/07/14 07:54:38;;;;;;;;;;;;;;;;;;5021225;28;19910;-21
2022/07/14 07:57:10;;;;;;;;;;;;;;;;;;5021373;28;19924;-22
2022/07/14 08:02:24;;;;;;;;;;;;;;;;;;5021567;28;20252;-21
2022/07/14 08:04:52;;;;;;;;;;;;;;;;;;5003784;28;19917;-18
2022/07/14 08:07:25;;;;;;;;;;;;;;;;;;5021429;28;20000;-21
2022/07/14 08:10:04;;;;;;;;;;;;;;;;;;5020955;28;19914;-21
2022/07/14 08:12:30;;;;;;;;;;;;;;;;;;5002916;28;19913;-20
2022/07/14 08:14:59;;;;;;;;;;;;;;;;;;5003057;28;19956;-23
2022/07/14 08:17:39;;;;;;;;;;;;;;;;;;5002722;28;20270;-21
2022/07/14 08:23:03;;;;;;;;;;;;;;;;;;5020702;28;20021;-21
2022/07/14 08:28:23;;;;;;;;;;;;;;;;;;5020583;28;19924;-21
2022/07/14 08:30:56;;;;;;;;;;;;;;;;;;5021111;28;19917;-21
2022/07/14 08:33:30;;;;;;;;;;;;;;;;;;5021413;28;20264;-20
2022/07/14 08:47:27;;;;;;;;;;;;;;;;;;5419175;23;19953;-24
2022/07/14 08:50:05;;;;;;;;;;;;;;;;;;5019409;28;19925;-24
2022/07/14 08:52:33;;;;;;;;;;;;;;;;;;5020239;28;19979;-24
2022/07/14 08:55:01;;;;;;;;;;;;;;;;;;5019432;28;20304;-24
2022/07/14 08:57:30;;;;;;;;;;;;;;;;;;5019307;28;19987;-24
2022/07/14 08:59:58;;;;;;;;;;;;;;;;;;5019283;28;19913;-24
2022/07/14 09:02:36;;;;;;;;;;;;;;;;;;5019690;28;19924;-24
2022/07/14 09:05:03;;;;;;;;;;;;;;;;;;5019033;28;19921;-24
2022/07/14 09:07:41;;;;;;;;;;;;;;;;;;5018877;28;19921;-24
2022/07/14 09:13:02;;;;;;;;;;;;;;;;;;5020300;28;19925;-24
2022/07/14 09:15:47;;;;;;;;;;;;;;;;;;5002054;28;20319;-24
2022/07/14 09:18:21;;;;;;;;;;;;;;;;;;5019231;28;19909;-24
2022/07/14 09:26:16;;;;;;;;;;;;;;;;;;5020680;28;19928;-22
2022/07/14 09:28:53;;;;;;;;;;;;;;;;;;5021515;28;19952;-23
2022/07/14 09:34:12;;;;;;;;;;;;;;;;;;4999314;28;20344;-24
2022/07/14 09:36:40;;;;;;;;;;;;;;;;;;5000613;28;19914;-24
2022/07/14 09:39:08;;;;;;;;;;;;;;;;;;4999282;28;19918;-24
2022/07/14 09:47:22;;;;;;;;;;;;;;;;;;4997427;28;19982;-24
2022/07/14 09:50:01;;;;;;;;;;;;;;;;;;4999406;28;20341;-24
2022/07/14 09:52:44;;;;;;;;;;;;;;;;;;4990563;28;19914;-24
2022/07/14 10:18:00;;;;;;;;;;;;;;;;;;5001024;28;19921;-23
2022/07/14 10:20:30;;;;;;;;;;;;;;;;;;4999755;28;19924;-23
2022/07/14 10:23:05;;;;;;;;;;;;;;;;;;4999877;28;19909;-22
2022/07/14 10:25:33;;;;;;;;;;;;;;;;;;4998049;28;20367;-22
2022/07/14 10:30:51;;;;;;;;;;;;;;;;;;5000252;28;20375;-22
2022/07/14 10:33:23;;;;;;;;;;;;;;;;;;4997891;28;19913;-22
2022/07/14 10:35:51;;;;;;;;;;;;;;;;;;4999897;28;20000;-23
2022/07/14 10:38:42;;;;;;;;;;;;;;;;;;4999764;28;19925;-21
2022/07/14 10:41:09;;;;;;;;;;;;;;;;;;4997276;28;20264;-20
2022/07/14 10:43:37;;;;;;;;;;;;;;;;;;4998226;28;19926;-21
2022/07/14 10:46:04;;;;;;;;;;;;;;;;;;4998690;28;19937;-20
2022/07/14 10:48:39;;;;;;;;;;;;;;;;;;4998738;28;19913;-22
2022/07/14 10:51:07;;;;;;;;;;;;;;;;;;5000155;28;19949;-21
2022/07/14 10:53:36;;;;;;;;;;;;;;;;;;4998225;28;19937;-22
2022/07/14 10:56:13;;;;;;;;;;;;;;;;;;4999487;28;19913;-22
2022/07/14 10:58:41;;;;;;;;;;;;;;;;;;4998770;28;19914;-22
2022/07/14 11:01:15;;;;;;;;;;;;;;;;;;4999203;28;19936;-22
2022/07/14 11:09:27;;;;;;;;;;;;;;;;;;5000396;28;19925;-22
2022/07/14 11:12:01;;;;;;;;;;;;;;;;;;5000709;28;19920;-21
2022/07/14 11:14:33;;;;;;;;;;;;;;;;;;5013374;28;19917;-22
2022/07/14 11:22:44;;;;;;;;;;;;;;;;;;5022938;28;19921;-22
2022/07/14 11:25:13;;;;;;;;;;;;;;;;;;5024386;28;19928;-22
2022/07/14 11:27:47;;;;;;;;;;;;;;;;;;5022598;28;19971;-22
2022/07/14 11:30:17;;;;;;;;;;;;;;;;;;5021658;28;19975;-21
2022/07/14 11:32:45;;;;;;;;;;;;;;;;;;5022032;28;19913;-22
2022/07/14 11:38:06;;;;;;;;;;;;;;;;;;5021894;28;19984;-22
2022/07/14 11:40:39;;;;;;;;;;;;;;;;;;5021838;28;19918;-21
2022/07/14 11:43:09;;;;;;;;;;;;;;;;;;5021961;28;19996;-21
2022/07/14 11:45:38;;;;;;;;;;;;;;;;;;5020544;28;19917;-21
2022/07/14 11:48:08;;;;;;;;;;;;;;;;;;5003455;28;19977;-22
2022/07/14 11:50:37;;;;;;;;;;;;;;;;;;5003625;28;19914;-21
2022/07/14 11:53:09;;;;;;;;;;;;;;;;;;5004200;28;19924;-21
2022/07/14 11:55:37;;;;;;;;;;;;;;;;;;5021022;28;19914;-21
2022/07/14 11:58:12;;;;;;;;;;;;;;;;;;5020861;28;19923;-21
2022/07/14 12:00:55;;;;;;;;;;;;;;;;;;5019276;28;19971;-21
2022/07/14 12:03:29;;;;;;;;;;;;;;;;;;5021221;28;20329;-21
2022/07/14 12:05:58;;;;;;;;;;;;;;;;;;5022322;28;19917;-21
2022/07/14 12:08:26;;;;;;;;;;;;;;;;;;5021202;28;19952;-21
2022/07/14 12:10:57;;;;;;;;;;;;;;;;;;5019588;28;19913;-21
2022/07/14 12:13:26;;;;;;;;;;;;;;;;;;5021217;28;19921;-21
2022/07/14 12:15:54;;;;;;;;;;;;;;;;;;5021698;28;19921;-21
2022/07/14 12:18:25;;;;;;;;;;;;;;;;;;5020269;28;19914;-21
2022/07/14 12:20:59;;;;;;;;;;;;;;;;;;5001314;28;19976;-22
2022/07/14 12:26:26;;;;;;;;;;;;;;;;;;5021299;28;19940;-22
2022/07/14 12:28:55;;;;;;;;;;;;;;;;;;5021796;28;20003;-22
2022/07/14 12:31:28;;;;;;;;;;;;;;;;;;5020682;28;19979;-21
2022/07/14 12:33:56;;;;;;;;;;;;;;;;;;5019774;28;19949;-21
2022/07/14 12:36:25;;;;;;;;;;;;;;;;;;5021255;28;19945;-21
2022/07/14 12:38:53;;;;;;;;;;;;;;;;;;5004763;28;19961;-22
2022/07/14 12:41:26;;;;;;;;;;;;;;;;;;5022769;28;20008;-22
2022/07/14 12:43:58;;;;;;;;;;;;;;;;;;5004328;28;20004;-22
2022/07/14 12:46:40;;;;;;;;;;;;;;;;;;5003497;28;19972;-22
2022/07/14 12:49:13;;;;;;;;;;;;;;;;;;5002605;28;19936;-22
2022/07/14 12:51:46;;;;;;;;;;;;;;;;;;5019817;28;20268;-22
2022/07/14 12:54:15;;;;;;;;;;;;;;;;;;5021008;28;19914;-22
2022/07/14 12:56:44;;;;;;;;;;;;;;;;;;5020084;28;20264;-21
2022/07/14 12:59:12;;;;;;;;;;;;;;;;;;5020368;28;19921;-21
2022/07/14 13:01:39;;;;;;;;;;;;;;;;;;5003022;28;19909;-21
2022/07/14 13:04:07;;;;;;;;;;;;;;;;;;5019820;28;19932;-22
2022/07/14 13:06:35;;;;;;;;;;;;;;;;;;5020523;28;20005;-21
2022/07/14 13:09:10;;;;;;;;;;;;;;;;;;5021404;28;19940;-21
2022/07/14 13:11:42;;;;;;;;;;;;;;;;;;5018414;28;20275;-22
2022/07/14 13:14:11;;;;;;;;;;;;;;;;;;5001767;28;20354;-21
2022/07/14 13:16:47;;;;;;;;;;;;;;;;;;5020211;28;19924;-22
2022/07/14 13:19:15;;;;;;;;;;;;;;;;;;5020685;28;20002;-21
2022/07/14 13:24:33;;;;;;;;;;;;;;;;;;5021529;28;20319;-21
2022/07/14 13:27:01;;;;;;;;;;;;;;;;;;5019194;28;19923;-21
2022/07/14 13:29:28;;;;;;;;;;;;;;;;;;5002157;28;19920;-21
2022/07/14 13:31:55;;;;;;;;;;;;;;;;;;5002044;28;20008;-21
2022/07/14 13:34:22;;;;;;;;;;;;;;;;;;5019304;28;19909;-21
2022/07/14 13:36:49;;;;;;;;;;;;;;;;;;5019042;28;19921;-21
2022/07/14 13:39:16;;;;;;;;;;;;;;;;;;5018839;28;20260;-21
2022/07/14 13:41:45;;;;;;;;;;;;;;;;;;5018868;28;19961;-21
2022/07/14 13:44:21;;;;;;;;;;;;;;;;;;5019633;28;20288;-21
2022/07/14 13:46:49;;;;;;;;;;;;;;;;;;5020128;28;19913;-21
2022/07/14 13:49:25;;;;;;;;;;;;;;;;;;5017762;28;20352;-20
2022/07/14 13:52:10;;;;;;;;;;;;;;;;;;5001598;28;19945;-21
2022/07/14 13:54:41;;;;;;;;;;;;;;;;;;5000840;28;19923;-21
2022/07/14 13:57:17;;;;;;;;;;;;;;;;;;4999557;28;19964;-21
2022/07/14 13:59:49;;;;;;;;;;;;;;;;;;5018676;28;20000;-22
2022/07/14 14:02:17;;;;;;;;;;;;;;;;;;5019200;28;19928;-21
2022/07/14 14:04:44;;;;;;;;;;;;;;;;;;5000332;28;19921;-22
2022/07/14 14:07:11;;;;;;;;;;;;;;;;;;5017904;28;20321;-22
2022/07/14 14:09:41;;;;;;;;;;;;;;;;;;5017520;28;20344;-22
2022/07/14 14:12:08;;;;;;;;;;;;;;;;;;5017459;28;19913;-21
2022/07/14 14:14:35;;;;;;;;;;;;;;;;;;5000026;28;19921;-21
2022/07/14 14:17:06;;;;;;;;;;;;;;;;;;5017876;28;19914;-21
2022/07/14 14:19:34;;;;;;;;;;;;;;;;;;5017592;28;20352;-22
2022/07/14 14:22:02;;;;;;;;;;;;;;;;;;5017685;28;20222;-22
2022/07/14 14:24:29;;;;;;;;;;;;;;;;;;5017414;28;19928;-22
2022/07/14 14:29:42;;;;;;;;;;;;;;;;;;5019816;28;19964;-22
2022/07/14 14:32:09;;;;;;;;;;;;;;;;;;5018619;28;19945;-22
2022/07/14 14:34:38;;;;;;;;;;;;;;;;;;5000414;28;19914;-22
2022/07/14 14:37:05;;;;;;;;;;;;;;;;;;5017831;28;19913;-22
2022/07/14 14:39:32;;;;;;;;;;;;;;;;;;5018488;28;19925;-22
2022/07/14 14:42:01;;;;;;;;;;;;;;;;;;5000442;28;19913;-22
2022/07/14 14:47:15;;;;;;;;;;;;;;;;;;5016166;28;19924;-22
2022/07/14 14:49:52;;;;;;;;;;;;;;;;;;5017307;28;19921;-22
2022/07/14 14:52:21;;;;;;;;;;;;;;;;;;5000426;28;19909;-22
2022/07/14 14:54:48;;;;;;;;;;;;;;;;;;5016134;28;19913;-22
2022/07/14 14:57:16;;;;;;;;;;;;;;;;;;5017584;28;19909;-22
2022/07/14 14:59:44;;;;;;;;;;;;;;;;;;5017583;28;19913;-22
2022/07/14 15:02:19;;;;;;;;;;;;;;;;;;4999615;28;19936;-22
2022/07/14 15:04:46;;;;;;;;;;;;;;;;;;5000517;28;19971;-22
2022/07/14 15:07:13;;;;;;;;;;;;;;;;;;5016749;28;20253;-22
2022/07/14 15:09:41;;;;;;;;;;;;;;;;;;5016822;28;19987;-23
2022/07/14 15:12:10;;;;;;;;;;;;;;;;;;5016696;28;19953;-22
2022/07/14 15:14:37;;;;;;;;;;;;;;;;;;5017246;28;20098;-22
2022/07/14 15:17:04;;;;;;;;;;;;;;;;;;5016982;28;20004;-22
2022/07/14 15:19:31;;;;;;;;;;;;;;;;;;5016296;28;20017;-22
2022/07/14 15:21:58;;;;;;;;;;;;;;;;;;5017230;28;19913;-22
2022/07/14 15:24:27;;;;;;;;;;;;;;;;;;4999161;28;19913;-21
2022/07/14 15:26:54;;;;;;;;;;;;;;;;;;4999778;28;19924;-22
2022/07/14 15:29:22;;;;;;;;;;;;;;;;;;5016968;28;20015;-20
2022/07/14 15:31:48;;;;;;;;;;;;;;;;;;4998662;28;19913;-22
2022/07/14 15:34:15;;;;;;;;;;;;;;;;;;5017178;28;19910;-21
2022/07/14 15:36:42;;;;;;;;;;;;;;;;;;5016979;28;19941;-21
2022/07/14 15:41:55;;;;;;;;;;;;;;;;;;5016571;28;19940;-22
2022/07/14 15:44:23;;;;;;;;;;;;;;;;;;5016994;28;19913;-21
2022/07/14 15:46:49;;;;;;;;;;;;;;;;;;5016871;28;19928;-22
2022/07/14 15:49:18;;;;;;;;;;;;;;;;;;4999335;28;19928;-22
2022/07/14 15:51:46;;;;;;;;;;;;;;;;;;5017043;28;19910;-25
2022/07/14 15:54:12;;;;;;;;;;;;;;;;;;5016308;28;19948;-22
2022/07/14 15:56:40;;;;;;;;;;;;;;;;;;5016450;28;19956;-22
2022/07/14 15:59:07;;;;;;;;;;;;;;;;;;4999298;28;19924;-22
2022/07/14 16:01:34;;;;;;;;;;;;;;;;;;5016278;28;19913;-22
2022/07/14 16:04:04;;;;;;;;;;;;;;;;;;5016171;28;19952;-22
2022/07/14 16:06:32;;;;;;;;;;;;;;;;;;5019891;28;19913;-22
2022/07/14 16:08:59;;;;;;;;;;;;;;;;;;5020596;28;19961;-22
2022/07/14 16:11:26;;;;;;;;;;;;;;;;;;5020398;28;19975;-22
2022/07/14 16:13:56;;;;;;;;;;;;;;;;;;5019836;28;19921;-22
2022/07/14 16:16:23;;;;;;;;;;;;;;;;;;5019551;28;20336;-21
2022/07/14 16:18:50;;;;;;;;;;;;;;;;;;5019567;28;20243;-21
2022/07/14 16:21:17;;;;;;;;;;;;;;;;;;5018865;28;19945;-21
2022/07/14 16:23:44;;;;;;;;;;;;;;;;;;5018540;28;19945;-22
2022/07/14 16:26:13;;;;;;;;;;;;;;;;;;5019132;28;19917;-21
2022/07/14 16:28:40;;;;;;;;;;;;;;;;;;5019010;28;19925;-21
2022/07/14 16:31:07;;;;;;;;;;;;;;;;;;5019640;28;19941;-21
2022/07/14 16:33:35;;;;;;;;;;;;;;;;;;5019664;28;20352;-21
2022/07/14 16:36:01;;;;;;;;;;;;;;;;;;5019438;28;20271;-21
2022/07/14 16:38:29;;;;;;;;;;;;;;;;;;5001517;28;20263;-22
2022/07/14 16:41:02;;;;;;;;;;;;;;;;;;5001990;28;19917;-22
2022/07/14 16:43:29;;;;;;;;;;;;;;;;;;5002335;28;19996;-22
2022/07/14 16:45:57;;;;;;;;;;;;;;;;;;5019334;28;19917;-21
2022/07/14 16:48:24;;;;;;;;;;;;;;;;;;5001946;28;19914;-21
2022/07/14 16:50:52;;;;;;;;;;;;;;;;;;5019737;28;19909;-22
2022/07/14 16:53:19;;;;;;;;;;;;;;;;;;5020111;28;19914;-22
2022/07/14 16:55:47;;;;;;;;;;;;;;;;;;5019675;28;20348;-22
2022/07/14 16:58:17;;;;;;;;;;;;;;;;;;5019482;28;20256;-22
2022/07/14 17:00:44;;;;;;;;;;;;;;;;;;5003046;28;19920;-21
2022/07/14 17:03:11;;;;;;;;;;;;;;;;;;5002928;28;19996;-21
2022/07/14 17:08:23;;;;;;;;;;;;;;;;;;5019170;28;19976;-21
2022/07/14 17:10:50;;;;;;;;;;;;;;;;;;5001807;28;19911;-21
2022/07/14 17:13:16;;;;;;;;;;;;;;;;;;5001279;28;20069;-21
2022/07/14 17:15:44;;;;;;;;;;;;;;;;;;5019164;28;19981;-21
2022/07/14 17:18:11;;;;;;;;;;;;;;;;;;5018946;28;20016;-21
2022/07/14 17:20:39;;;;;;;;;;;;;;;;;;5001689;28;19980;-21
2022/07/14 17:23:07;;;;;;;;;;;;;;;;;;5018925;28;19971;-22
2022/07/14 17:25:34;;;;;;;;;;;;;;;;;;5001454;28;19982;-22
2022/07/14 17:28:01;;;;;;;;;;;;;;;;;;5019006;28;20007;-22
2022/07/14 17:30:28;;;;;;;;;;;;;;;;;;5019464;28;19910;-21
2022/07/14 17:32:55;;;;;;;;;;;;;;;;;;5018479;28;20027;-21
2022/07/14 17:35:22;;;;;;;;;;;;;;;;;;5000909;28;19909;-21
2022/07/14 17:37:49;;;;;;;;;;;;;;;;;;5018427;28;20228;-22
2022/07/14 17:40:16;;;;;;;;;;;;;;;;;;5018016;28;20339;-22
2022/07/14 17:42:43;;;;;;;;;;;;;;;;;;5018420;28;19932;-22
2022/07/14 17:45:10;;;;;;;;;;;;;;;;;;5017446;28;19923;-21
2022/07/14 17:47:37;;;;;;;;;;;;;;;;;;5017003;28;20340;-21
2022/07/14 17:50:03;;;;;;;;;;;;;;;;;;5017397;28;20016;-21
2022/07/14 17:52:31;;;;;;;;;;;;;;;;;;5017357;28;20336;-21
2022/07/14 17:54:58;;;;;;;;;;;;;;;;;;5017188;28;19921;-22
2022/07/14 17:57:25;;;;;;;;;;;;;;;;;;5017632;28;20012;-21
2022/07/14 17:59:52;;;;;;;;;;;;;;;;;;5016974;28;19987;-22
2022/07/14 18:02:19;;;;;;;;;;;;;;;;;;5016931;28;20253;-22
2022/07/14 18:04:48;;;;;;;;;;;;;;;;;;5016722;28;19917;-21
2022/07/14 18:07:14;;;;;;;;;;;;;;;;;;5016501;28;20000;-21
2022/07/14 18:09:42;;;;;;;;;;;;;;;;;;5016899;28;19909;-21
2022/07/14 18:12:08;;;;;;;;;;;;;;;;;;4999311;28;19948;-21
2022/07/14 18:14:35;;;;;;;;;;;;;;;;;;5016758;28;19921;-22
2022/07/14 18:17:02;;;;;;;;;;;;;;;;;;4999264;28;19967;-21
2022/07/14 18:19:30;;;;;;;;;;;;;;;;;;4999009;28;20341;-22
2022/07/14 18:21:58;;;;;;;;;;;;;;;;;;5016296;28;19913;-21
2022/07/14 18:24:25;;;;;;;;;;;;;;;;;;4998973;28;19957;-22
2022/07/14 18:26:51;;;;;;;;;;;;;;;;;;4999566;28;19909;-22
2022/07/14 18:29:18;;;;;;;;;;;;;;;;;;5016440;28;20000;-22
2022/07/14 18:31:45;;;;;;;;;;;;;;;;;;5016922;28;19936;-22
2022/07/14 18:34:12;;;;;;;;;;;;;;;;;;5016635;28;19925;-21
2022/07/14 18:36:39;;;;;;;;;;;;;;;;;;5016494;28;20259;-22
2022/07/14 18:39:06;;;;;;;;;;;;;;;;;;5016759;28;19913;-21
2022/07/14 18:41:33;;;;;;;;;;;;;;;;;;5017452;28;19914;-22
2022/07/14 18:44:01;;;;;;;;;;;;;;;;;;4998958;28;19913;-22
2022/07/14 18:46:28;;;;;;;;;;;;;;;;;;5016342;28;20292;-21
2022/07/14 18:48:55;;;;;;;;;;;;;;;;;;5016525;28;19952;-21
2022/07/14 18:51:23;;;;;;;;;;;;;;;;;;5017182;28;19914;-22
2022/07/14 18:53:50;;;;;;;;;;;;;;;;;;4999123;28;19921;-22
2022/07/14 18:56:17;;;;;;;;;;;;;;;;;;4999538;28;20003;-21